sensor_id;sensor_type;location;lat;lon;timestamp;pressure;altitude;pressure_sealevel;temperature;humidity
46379;BME280;32084;42.254;22.744;2023-05-24T00:01:23;95021.13;;;12.01;86.31
46379;BME280;32084;42.254;22.744;2023-05-24T00:03:53;95022.25;;;12.15;86.23
46379;BME280;32084;42.254;22.744;2023-05-24T00:06:19;95025.53;;;12.25;85.66
46379;BME280;32084;42.254;22.744;2023-05-24T00:08:45;95019.78;;;12.36;85.69
46379;BME280;32084;42.254;22.744;2023-05-24T00:11:11;95020.06;;;12.49;85.14
46379;BME280;32084;42.254;22.744;2023-05-24T00:13:38;95027.88;;;12.59;85.20
46379;BME280;32084;42.254;22.744;2023-05-24T00:16:04;95027.06;;;12.59;85.81
46379;BME280;32084;42.254;22.744;2023-05-24T00:18:30;95014.00;;;12.56;85.69
46379;BME280;32084;42.254;22.744;2023-05-24T00:20:56;95016.22;;;12.52;85.39
46379;BME280;32084;42.254;22.744;2023-05-24T00:23:23;95013.94;;;12.41;85.40
46379;BME280;32084;42.254;22.744;2023-05-24T00:25:50;95016.25;;;12.04;86.59
46379;BME280;32084;42.254;22.744;2023-05-24T00:28:16;95015.91;;;12.07;86.60
46379;BME280;32084;42.254;22.744;2023-05-24T00:30:42;95019.09;;;12.11;85.94
46379;BME280;32084;42.254;22.744;2023-05-24T00:33:08;95012.75;;;12.04;86.23
46379;BME280;32084;42.254;22.744;2023-05-24T00:35:34;95008.88;;;12.06;86.62
46379;BME280;32084;42.254;22.744;2023-05-24T00:38:00;95009.78;;;11.90;87.95
46379;BME280;32084;42.254;22.744;2023-05-24T00:40:26;95017.47;;;11.94;87.85
46379;BME280;32084;42.254;22.744;2023-05-24T00:42:52;95009.22;;;12.03;87.06
46379;BME280;32084;42.254;22.744;2023-05-24T00:45:18;95011.75;;;12.05;87.04
46379;BME280;32084;42.254;22.744;2023-05-24T00:47:44;95009.72;;;12.07;86.92
46379;BME280;32084;42.254;22.744;2023-05-24T00:50:10;95010.88;;;12.04;86.74
46379;BME280;32084;42.254;22.744;2023-05-24T00:52:39;95005.91;;;11.93;86.97
46379;BME280;32084;42.254;22.744;2023-05-24T00:55:06;95010.13;;;11.71;87.80
46379;BME280;32084;42.254;22.744;2023-05-24T00:57:32;95017.84;;;11.66;88.46
46379;BME280;32084;42.254;22.744;2023-05-24T00:59:59;95009.81;;;11.66;87.90
46379;BME280;32084;42.254;22.744;2023-05-24T01:02:25;95012.00;;;11.70;87.48
46379;BME280;32084;42.254;22.744;2023-05-24T01:04:51;95003.94;;;11.79;87.19
46379;BME280;32084;42.254;22.744;2023-05-24T01:07:20;95006.28;;;11.90;86.54
46379;BME280;32084;42.254;22.744;2023-05-24T01:15:58;95014.19;;;11.50;87.93
46379;BME280;32084;42.254;22.744;2023-05-24T01:18:23;95013.00;;;11.61;87.50
46379;BME280;32084;42.254;22.744;2023-05-24T01:21:00;95019.38;;;11.52;87.91
46379;BME280;32084;42.254;22.744;2023-05-24T01:26:19;95016.03;;;11.42;88.71
46379;BME280;32084;42.254;22.744;2023-05-24T01:28:51;95020.41;;;11.26;89.27
46379;BME280;32084;42.254;22.744;2023-05-24T01:31:18;95021.25;;;11.10;89.84
46379;BME280;32084;42.254;22.744;2023-05-24T01:33:45;95028.44;;;10.93;91.04
46379;BME280;32084;42.254;22.744;2023-05-24T01:36:11;95032.66;;;11.04;90.54
46379;BME280;32084;42.254;22.744;2023-05-24T01:38:37;95029.63;;;11.16;89.02
46379;BME280;32084;42.254;22.744;2023-05-24T01:41:09;95019.91;;;11.23;89.05
46379;BME280;32084;42.254;22.744;2023-05-24T01:43:39;95030.28;;;11.26;88.56
46379;BME280;32084;42.254;22.744;2023-05-24T01:48:35;95024.75;;;11.36;88.25
46379;BME280;32084;42.254;22.744;2023-05-24T01:51:04;95029.13;;;10.96;89.49
46379;BME280;32084;42.254;22.744;2023-05-24T01:53:32;95028.97;;;10.97;89.42
46379;BME280;32084;42.254;22.744;2023-05-24T01:56:00;95023.59;;;10.97;88.79
46379;BME280;32084;42.254;22.744;2023-05-24T01:58:26;95026.09;;;10.74;89.98
46379;BME280;32084;42.254;22.744;2023-05-24T02:00:54;95026.25;;;10.64;90.73
46379;BME280;32084;42.254;22.744;2023-05-24T02:03:21;95028.09;;;10.88;90.24
46379;BME280;32084;42.254;22.744;2023-05-24T02:05:47;95024.25;;;11.07;89.51
46379;BME280;32084;42.254;22.744;2023-05-24T02:08:13;95027.28;;;11.12;88.94
46379;BME280;32084;42.254;22.744;2023-05-24T02:10:39;95032.28;;;11.07;88.93
46379;BME280;32084;42.254;22.744;2023-05-24T02:13:06;95026.75;;;10.84;89.89
46379;BME280;32084;42.254;22.744;2023-05-24T02:15:32;95015.91;;;10.78;90.27
46379;BME280;32084;42.254;22.744;2023-05-24T02:18:00;95017.09;;;10.83;89.94
46379;BME280;32084;42.254;22.744;2023-05-24T02:20:26;95016.22;;;10.83;90.31
46379;BME280;32084;42.254;22.744;2023-05-24T02:22:55;95017.06;;;11.00;89.07
46379;BME280;32084;42.254;22.744;2023-05-24T02:25:22;95021.94;;;11.04;89.37
46379;BME280;32084;42.254;22.744;2023-05-24T02:27:48;95016.75;;;11.11;89.19
46379;BME280;32084;42.254;22.744;2023-05-24T02:30:14;95013.22;;;11.19;89.26
46379;BME280;32084;42.254;22.744;2023-05-24T02:32:40;95014.56;;;11.23;88.50
46379;BME280;32084;42.254;22.744;2023-05-24T02:35:06;95008.69;;;11.19;88.19
46379;BME280;32084;42.254;22.744;2023-05-24T02:37:32;95016.59;;;11.12;88.36
46379;BME280;32084;42.254;22.744;2023-05-24T02:39:58;95018.94;;;10.91;88.89
46379;BME280;32084;42.254;22.744;2023-05-24T02:42:24;95011.06;;;10.89;89.36
46379;BME280;32084;42.254;22.744;2023-05-24T02:44:50;95016.41;;;10.89;89.33
46379;BME280;32084;42.254;22.744;2023-05-24T02:47:17;95015.56;;;10.64;90.28
46379;BME280;32084;42.254;22.744;2023-05-24T02:49:43;95005.84;;;10.63;90.77
46379;BME280;32084;42.254;22.744;2023-05-24T02:52:09;95011.72;;;10.67;90.33
46379;BME280;32084;42.254;22.744;2023-05-24T02:54:35;95014.88;;;10.70;89.76
46379;BME280;32084;42.254;22.744;2023-05-24T02:57:02;95013.56;;;10.83;89.70
46379;BME280;32084;42.254;22.744;2023-05-24T02:59:28;95016.59;;;10.80;89.62
46379;BME280;32084;42.254;22.744;2023-05-24T03:01:54;95021.06;;;10.79;89.62
46379;BME280;32084;42.254;22.744;2023-05-24T03:04:20;95014.56;;;10.82;89.27
46379;BME280;32084;42.254;22.744;2023-05-24T03:06:46;95008.22;;;10.74;89.08
46379;BME280;32084;42.254;22.744;2023-05-24T03:09:12;95014.69;;;10.55;90.35
46379;BME280;32084;42.254;22.744;2023-05-24T03:11:41;95021.31;;;10.35;91.90
46379;BME280;32084;42.254;22.744;2023-05-24T03:14:07;95027.19;;;10.47;92.16
46379;BME280;32084;42.254;22.744;2023-05-24T03:16:35;95033.03;;;10.42;92.66
46379;BME280;32084;42.254;22.744;2023-05-24T03:19:02;95038.91;;;10.54;92.01
46379;BME280;32084;42.254;22.744;2023-05-24T03:21:28;95038.91;;;10.62;90.87
46379;BME280;32084;42.254;22.744;2023-05-24T03:23:54;95033.78;;;10.77;90.26
46379;BME280;32084;42.254;22.744;2023-05-24T03:26:20;95042.81;;;10.92;89.59
46379;BME280;32084;42.254;22.744;2023-05-24T03:28:46;95051.69;;;10.93;89.06
46379;BME280;32084;42.254;22.744;2023-05-24T03:31:12;95044.19;;;10.97;88.71
46379;BME280;32084;42.254;22.744;2023-05-24T03:33:38;95053.69;;;10.99;88.14
46379;BME280;32084;42.254;22.744;2023-05-24T03:36:04;95042.34;;;10.97;89.05
46379;BME280;32084;42.254;22.744;2023-05-24T03:38:31;95048.03;;;11.10;89.81
46379;BME280;32084;42.254;22.744;2023-05-24T03:40:58;95047.19;;;11.35;88.93
46379;BME280;32084;42.254;22.744;2023-05-24T03:43:24;95048.69;;;11.37;89.32
46379;BME280;32084;42.254;22.744;2023-05-24T03:45:50;95057.38;;;11.23;89.15
46379;BME280;32084;42.254;22.744;2023-05-24T03:48:16;95055.72;;;11.30;88.92
46379;BME280;32084;42.254;22.744;2023-05-24T03:50:45;95052.19;;;11.54;88.46
46379;BME280;32084;42.254;22.744;2023-05-24T03:53:11;95052.34;;;11.69;88.29
46379;BME280;32084;42.254;22.744;2023-05-24T03:55:37;95055.78;;;12.02;88.80
46379;BME280;32084;42.254;22.744;2023-05-24T03:58:03;95057.00;;;12.39;87.04
46379;BME280;32084;42.254;22.744;2023-05-24T04:00:30;95059.00;;;12.68;85.97
46379;BME280;32084;42.254;22.744;2023-05-24T04:02:56;95055.69;;;12.89;85.13
46379;BME280;32084;42.254;22.744;2023-05-24T04:05:22;95059.31;;;12.74;83.91
46379;BME280;32084;42.254;22.744;2023-05-24T04:07:51;95060.13;;;12.51;85.83
46379;BME280;32084;42.254;22.744;2023-05-24T04:10:18;95065.81;;;12.56;86.16
46379;BME280;32084;42.254;22.744;2023-05-24T04:12:44;95067.44;;;12.65;87.44
46379;BME280;32084;42.254;22.744;2023-05-24T04:15:10;95070.22;;;12.72;88.37
46379;BME280;32084;42.254;22.744;2023-05-24T04:17:42;95069.50;;;12.86;87.68
46379;BME280;32084;42.254;22.744;2023-05-24T04:20:09;95065.69;;;13.27;86.42
46379;BME280;32084;42.254;22.744;2023-05-24T04:22:35;95071.81;;;13.59;85.20
46379;BME280;32084;42.254;22.744;2023-05-24T04:25:02;95071.03;;;13.88;84.17
46379;BME280;32084;42.254;22.744;2023-05-24T04:27:28;95069.84;;;13.91;85.64
46379;BME280;32084;42.254;22.744;2023-05-24T04:29:54;95069.84;;;13.91;83.88
46379;BME280;32084;42.254;22.744;2023-05-24T04:32:21;95071.88;;;14.03;84.22
46379;BME280;32084;42.254;22.744;2023-05-24T04:34:48;95068.63;;;14.38;81.78
46379;BME280;32084;42.254;22.744;2023-05-24T04:37:15;95058.16;;;14.73;79.44
46379;BME280;32084;42.254;22.744;2023-05-24T04:39:42;95057.66;;;14.84;81.21
46379;BME280;32084;42.254;22.744;2023-05-24T04:42:09;95065.78;;;14.91;79.53
46379;BME280;32084;42.254;22.744;2023-05-24T04:44:35;95070.44;;;14.97;79.09
46379;BME280;32084;42.254;22.744;2023-05-24T04:47:01;95066.25;;;14.94;80.87
46379;BME280;32084;42.254;22.744;2023-05-24T04:49:28;95070.78;;;15.09;78.51
46379;BME280;32084;42.254;22.744;2023-05-24T04:51:55;95074.94;;;15.11;79.72
46379;BME280;32084;42.254;22.744;2023-05-24T04:54:21;95079.69;;;15.31;80.37
46379;BME280;32084;42.254;22.744;2023-05-24T04:56:47;95079.28;;;15.55;79.38
46379;BME280;32084;42.254;22.744;2023-05-24T04:59:13;95083.75;;;15.91;77.15
46379;BME280;32084;42.254;22.744;2023-05-24T05:01:39;95086.78;;;16.03;76.29
46379;BME280;32084;42.254;22.744;2023-05-24T05:04:06;95088.25;;;16.12;75.38
46379;BME280;32084;42.254;22.744;2023-05-24T05:06:32;95090.22;;;15.97;77.65
46379;BME280;32084;42.254;22.744;2023-05-24T05:09:03;95091.28;;;15.96;78.23
46379;BME280;32084;42.254;22.744;2023-05-24T05:11:30;95090.56;;;16.09;78.53
46379;BME280;32084;42.254;22.744;2023-05-24T05:13:56;95099.41;;;16.03;78.78
46379;BME280;32084;42.254;22.744;2023-05-24T05:16:22;95094.97;;;16.16;77.39
46379;BME280;32084;42.254;22.744;2023-05-24T05:18:48;95086.31;;;16.28;77.53
46379;BME280;32084;42.254;22.744;2023-05-24T05:21:14;95086.97;;;16.36;74.41
46379;BME280;32084;42.254;22.744;2023-05-24T05:23:40;95090.50;;;16.37;74.46
46379;BME280;32084;42.254;22.744;2023-05-24T05:26:06;95087.94;;;16.57;74.49
46379;BME280;32084;42.254;22.744;2023-05-24T05:28:32;95089.00;;;16.63;72.64
46379;BME280;32084;42.254;22.744;2023-05-24T05:30:58;95085.06;;;16.65;73.74
46379;BME280;32084;42.254;22.744;2023-05-24T05:33:24;95091.09;;;17.15;73.68
46379;BME280;32084;42.254;22.744;2023-05-24T05:35:50;95082.38;;;17.20;72.31
46379;BME280;32084;42.254;22.744;2023-05-24T05:38:16;95090.09;;;17.23;71.52
46379;BME280;32084;42.254;22.744;2023-05-24T05:40:42;95097.63;;;17.48;68.06
46379;BME280;32084;42.254;22.744;2023-05-24T05:43:08;95095.28;;;17.31;69.18
46379;BME280;32084;42.254;22.744;2023-05-24T05:45:34;95099.50;;;17.54;69.59
46379;BME280;32084;42.254;22.744;2023-05-24T05:48:00;95108.44;;;17.61;68.01
46379;BME280;32084;42.254;22.744;2023-05-24T05:50:26;95099.75;;;17.92;69.51
46379;BME280;32084;42.254;22.744;2023-05-24T05:52:52;95098.09;;;18.05;69.44
46379;BME280;32084;42.254;22.744;2023-05-24T05:55:18;95107.25;;;18.17;69.88
46379;BME280;32084;42.254;22.744;2023-05-24T05:57:44;95113.91;;;18.28;67.74
46379;BME280;32084;42.254;22.744;2023-05-24T06:00:10;95113.47;;;18.44;68.54
46379;BME280;32084;42.254;22.744;2023-05-24T06:02:36;95102.19;;;18.47;67.75
46379;BME280;32084;42.254;22.744;2023-05-24T06:05:02;95111.28;;;18.80;65.83
46379;BME280;32084;42.254;22.744;2023-05-24T06:07:28;95109.41;;;18.94;65.72
46379;BME280;32084;42.254;22.744;2023-05-24T06:09:55;95104.00;;;18.94;66.64
46379;BME280;32084;42.254;22.744;2023-05-24T06:12:21;95096.84;;;19.06;65.21
46379;BME280;32084;42.254;22.744;2023-05-24T06:14:47;95105.78;;;19.13;65.39
46379;BME280;32084;42.254;22.744;2023-05-24T06:17:15;95110.72;;;19.61;64.18
46379;BME280;32084;42.254;22.744;2023-05-24T06:19:41;95104.63;;;19.73;62.93
46379;BME280;32084;42.254;22.744;2023-05-24T06:22:08;95101.41;;;19.50;63.07
46379;BME280;32084;42.254;22.744;2023-05-24T06:24:34;95102.97;;;19.65;63.60
46379;BME280;32084;42.254;22.744;2023-05-24T06:27:01;95113.75;;;19.85;63.04
46379;BME280;32084;42.254;22.744;2023-05-24T06:29:27;95103.06;;;19.90;61.56
46379;BME280;32084;42.254;22.744;2023-05-24T06:31:53;95103.28;;;20.14;63.62
46379;BME280;32084;42.254;22.744;2023-05-24T06:34:19;95105.44;;;20.30;61.64
46379;BME280;32084;42.254;22.744;2023-05-24T06:36:48;95097.38;;;20.85;60.14
46379;BME280;32084;42.254;22.744;2023-05-24T06:39:15;95101.06;;;21.10;58.11
46379;BME280;32084;42.254;22.744;2023-05-24T06:41:42;95101.34;;;21.20;56.36
46379;BME280;32084;42.254;22.744;2023-05-24T06:44:09;95094.06;;;21.32;55.97
46379;BME280;32084;42.254;22.744;2023-05-24T06:46:35;95099.50;;;21.32;57.98
46379;BME280;32084;42.254;22.744;2023-05-24T06:49:01;95095.38;;;21.30;56.66
46379;BME280;32084;42.254;22.744;2023-05-24T06:51:28;95096.03;;;21.74;54.91
46379;BME280;32084;42.254;22.744;2023-05-24T06:53:54;95097.03;;;21.91;56.62
46379;BME280;32084;42.254;22.744;2023-05-24T06:56:20;95097.47;;;21.76;55.90
46379;BME280;32084;42.254;22.744;2023-05-24T06:58:46;95099.88;;;22.08;55.68
46379;BME280;32084;42.254;22.744;2023-05-24T07:01:12;95094.56;;;22.01;53.44
46379;BME280;32084;42.254;22.744;2023-05-24T07:03:39;95092.78;;;21.95;55.64
46379;BME280;32084;42.254;22.744;2023-05-24T07:06:05;95096.34;;;21.96;55.71
46379;BME280;32084;42.254;22.744;2023-05-24T07:08:32;95085.75;;;22.30;56.47
46379;BME280;32084;42.254;22.744;2023-05-24T07:10:58;95094.03;;;22.70;52.93
46379;BME280;32084;42.254;22.744;2023-05-24T07:13:24;95089.91;;;22.56;53.91
46379;BME280;32084;42.254;22.744;2023-05-24T07:15:50;95093.09;;;22.53;54.94
46379;BME280;32084;42.254;22.744;2023-05-24T07:18:16;95096.06;;;22.28;53.64
46379;BME280;32084;42.254;22.744;2023-05-24T07:20:42;95088.13;;;22.38;55.35
46379;BME280;32084;42.254;22.744;2023-05-24T07:23:08;95089.66;;;22.57;53.00
46379;BME280;32084;42.254;22.744;2023-05-24T07:25:34;95090.03;;;22.73;50.90
46379;BME280;32084;42.254;22.744;2023-05-24T07:28:00;95093.78;;;22.72;50.74
46379;BME280;32084;42.254;22.744;2023-05-24T07:30:26;95092.72;;;22.61;49.75
46379;BME280;32084;42.254;22.744;2023-05-24T07:32:53;95086.41;;;23.08;52.99
46379;BME280;32084;42.254;22.744;2023-05-24T07:35:19;95081.31;;;23.11;50.00
46379;BME280;32084;42.254;22.744;2023-05-24T07:37:45;95080.41;;;23.34;51.84
46379;BME280;32084;42.254;22.744;2023-05-24T07:40:12;95075.03;;;23.11;52.08
46379;BME280;32084;42.254;22.744;2023-05-24T07:42:38;95073.56;;;23.32;51.28
46379;BME280;32084;42.254;22.744;2023-05-24T07:45:05;95075.41;;;23.43;49.49
46379;BME280;32084;42.254;22.744;2023-05-24T07:47:31;95084.47;;;23.61;49.81
46379;BME280;32084;42.254;22.744;2023-05-24T07:49:57;95078.00;;;23.95;50.42
46379;BME280;32084;42.254;22.744;2023-05-24T07:52:23;95077.25;;;23.83;49.67
46379;BME280;32084;42.254;22.744;2023-05-24T07:54:50;95071.97;;;23.65;49.00
46379;BME280;32084;42.254;22.744;2023-05-24T07:57:17;95082.22;;;24.20;48.50
46379;BME280;32084;42.254;22.744;2023-05-24T07:59:43;95072.69;;;24.40;47.49
46379;BME280;32084;42.254;22.744;2023-05-24T08:02:10;95082.66;;;24.46;47.68
46379;BME280;32084;42.254;22.744;2023-05-24T08:04:38;95084.53;;;24.45;46.29
46379;BME280;32084;42.254;22.744;2023-05-24T08:07:04;95076.28;;;24.57;47.36
46379;BME280;32084;42.254;22.744;2023-05-24T08:09:31;95070.06;;;24.45;46.26
46379;BME280;32084;42.254;22.744;2023-05-24T08:12:03;95081.25;;;24.60;46.94
46379;BME280;32084;42.254;22.744;2023-05-24T08:14:29;95073.78;;;24.72;46.90
46379;BME280;32084;42.254;22.744;2023-05-24T08:16:55;95063.22;;;24.81;48.12
46379;BME280;32084;42.254;22.744;2023-05-24T08:19:21;95071.00;;;25.11;48.18
46379;BME280;32084;42.254;22.744;2023-05-24T08:21:48;95063.19;;;25.20;48.13
46379;BME280;32084;42.254;22.744;2023-05-24T08:24:14;95063.53;;;25.24;48.43
46379;BME280;32084;42.254;22.744;2023-05-24T08:26:40;95063.19;;;25.20;47.07
46379;BME280;32084;42.254;22.744;2023-05-24T08:29:08;95053.72;;;25.28;47.98
46379;BME280;32084;42.254;22.744;2023-05-24T08:31:34;95066.84;;;25.26;45.73
46379;BME280;32084;42.254;22.744;2023-05-24T08:34:00;95067.72;;;25.81;45.10
46379;BME280;32084;42.254;22.744;2023-05-24T08:36:27;95064.69;;;25.55;44.71
46379;BME280;32084;42.254;22.744;2023-05-24T08:38:53;95067.34;;;25.72;44.16
46379;BME280;32084;42.254;22.744;2023-05-24T08:41:19;95066.34;;;25.83;44.07
46379;BME280;32084;42.254;22.744;2023-05-24T08:43:45;95067.81;;;25.64;42.48
46379;BME280;32084;42.254;22.744;2023-05-24T08:46:12;95075.09;;;25.80;42.58
46379;BME280;32084;42.254;22.744;2023-05-24T08:48:46;95058.69;;;25.80;44.99
46379;BME280;32084;42.254;22.744;2023-05-24T08:51:15;95069.97;;;25.89;42.06
46379;BME280;32084;42.254;22.744;2023-05-24T08:53:43;95060.91;;;26.16;42.85
46379;BME280;32084;42.254;22.744;2023-05-24T08:56:16;95064.78;;;26.57;41.11
46379;BME280;32084;42.254;22.744;2023-05-24T08:58:42;95075.16;;;26.50;39.94
46379;BME280;32084;42.254;22.744;2023-05-24T09:01:09;95070.13;;;26.37;39.51
46379;BME280;32084;42.254;22.744;2023-05-24T09:03:36;95062.66;;;26.27;40.46
46379;BME280;32084;42.254;22.744;2023-05-24T09:06:03;95060.81;;;26.38;42.75
46379;BME280;32084;42.254;22.744;2023-05-24T09:08:29;95079.44;;;26.36;39.17
46379;BME280;32084;42.254;22.744;2023-05-24T09:10:58;95071.31;;;26.14;38.96
46379;BME280;32084;42.254;22.744;2023-05-24T09:13:24;95064.94;;;26.40;39.65
46379;BME280;32084;42.254;22.744;2023-05-24T09:15:51;95063.94;;;26.89;39.25
46379;BME280;32084;42.254;22.744;2023-05-24T09:18:17;95072.16;;;26.89;38.15
46379;BME280;32084;42.254;22.744;2023-05-24T09:20:43;95067.25;;;27.01;38.57
46379;BME280;32084;42.254;22.744;2023-05-24T09:23:09;95071.63;;;26.97;37.83
46379;BME280;32084;42.254;22.744;2023-05-24T09:25:36;95064.00;;;27.04;38.43
46379;BME280;32084;42.254;22.744;2023-05-24T09:28:07;95079.81;;;26.87;34.32
46379;BME280;32084;42.254;22.744;2023-05-24T09:30:33;95063.44;;;27.02;36.58
46379;BME280;32084;42.254;22.744;2023-05-24T09:33:00;95066.19;;;27.02;37.47
46379;BME280;32084;42.254;22.744;2023-05-24T09:35:26;95058.44;;;26.89;37.41
46379;BME280;32084;42.254;22.744;2023-05-24T09:37:53;95074.63;;;26.91;36.41
46379;BME280;32084;42.254;22.744;2023-05-24T09:40:22;95067.31;;;27.06;35.41
46379;BME280;32084;42.254;22.744;2023-05-24T09:42:48;95078.25;;;26.96;31.24
46379;BME280;32084;42.254;22.744;2023-05-24T09:45:17;95069.94;;;26.86;33.12
46379;BME280;32084;42.254;22.744;2023-05-24T09:47:43;95057.97;;;27.02;34.41
46379;BME280;32084;42.254;22.744;2023-05-24T09:50:13;95062.53;;;27.34;35.38
46379;BME280;32084;42.254;22.744;2023-05-24T09:52:40;95055.13;;;27.40;34.76
46379;BME280;32084;42.254;22.744;2023-05-24T09:55:10;95061.00;;;27.06;33.44
46379;BME280;32084;42.254;22.744;2023-05-24T09:57:36;95063.00;;;27.21;34.51
46379;BME280;32084;42.254;22.744;2023-05-24T10:00:05;95059.28;;;27.48;34.68
46379;BME280;32084;42.254;22.744;2023-05-24T10:02:39;95052.88;;;27.32;34.34
46379;BME280;32084;42.254;22.744;2023-05-24T10:05:05;95048.47;;;27.25;35.73
46379;BME280;32084;42.254;22.744;2023-05-24T10:07:32;95050.81;;;26.96;33.83
46379;BME280;32084;42.254;22.744;2023-05-24T10:09:59;95051.50;;;26.76;31.87
46379;BME280;32084;42.254;22.744;2023-05-24T10:12:25;95043.16;;;27.03;34.00
46379;BME280;32084;42.254;22.744;2023-05-24T10:14:52;95041.53;;;27.07;34.52
46379;BME280;32084;42.254;22.744;2023-05-24T10:17:22;95047.25;;;27.01;33.02
46379;BME280;32084;42.254;22.744;2023-05-24T10:19:52;95052.53;;;26.60;31.78
46379;BME280;32084;42.254;22.744;2023-05-24T10:22:18;95045.72;;;26.73;33.70
46379;BME280;32084;42.254;22.744;2023-05-24T10:24:46;95044.34;;;26.70;34.09
46379;BME280;32084;42.254;22.744;2023-05-24T10:27:15;95044.56;;;26.63;33.36
46379;BME280;32084;42.254;22.744;2023-05-24T10:29:58;95039.38;;;26.62;33.31
46379;BME280;32084;42.254;22.744;2023-05-24T10:32:26;95026.06;;;26.91;35.20
46379;BME280;32084;42.254;22.744;2023-05-24T10:34:57;95028.13;;;27.21;33.50
46379;BME280;32084;42.254;22.744;2023-05-24T10:37:24;95026.25;;;27.27;34.71
46379;BME280;32084;42.254;22.744;2023-05-24T10:39:51;95026.31;;;27.42;33.24
46379;BME280;32084;42.254;22.744;2023-05-24T10:42:18;95024.34;;;27.33;32.91
46379;BME280;32084;42.254;22.744;2023-05-24T10:44:44;95017.28;;;27.47;33.42
46379;BME280;32084;42.254;22.744;2023-05-24T10:47:11;95018.03;;;27.37;34.88
46379;BME280;32084;42.254;22.744;2023-05-24T10:49:38;95016.06;;;27.22;31.72
46379;BME280;32084;42.254;22.744;2023-05-24T10:52:08;95010.13;;;27.46;34.21
46379;BME280;32084;42.254;22.744;2023-05-24T10:54:34;95004.66;;;27.67;33.40
46379;BME280;32084;42.254;22.744;2023-05-24T10:57:01;95010.97;;;27.67;33.55
46379;BME280;32084;42.254;22.744;2023-05-24T10:59:34;94997.78;;;27.43;32.20
46379;BME280;32084;42.254;22.744;2023-05-24T11:02:07;94991.47;;;27.58;33.88
46379;BME280;32084;42.254;22.744;2023-05-24T11:04:38;94996.41;;;27.56;33.03
46379;BME280;32084;42.254;22.744;2023-05-24T11:07:05;94991.16;;;27.44;33.49
46379;BME280;32084;42.254;22.744;2023-05-24T11:09:35;94994.97;;;27.33;33.64
46379;BME280;32084;42.254;22.744;2023-05-24T11:12:02;94991.28;;;26.97;34.88
46379;BME280;32084;42.254;22.744;2023-05-24T11:14:33;94990.13;;;26.87;32.84
46379;BME280;32084;42.254;22.744;2023-05-24T11:16:59;94989.53;;;26.80;32.70
46379;BME280;32084;42.254;22.744;2023-05-24T11:19:33;94982.88;;;26.61;33.34
46379;BME280;32084;42.254;22.744;2023-05-24T11:22:00;94984.41;;;26.99;34.30
46379;BME280;32084;42.254;22.744;2023-05-24T11:24:26;94981.72;;;27.15;33.66
46379;BME280;32084;42.254;22.744;2023-05-24T11:26:53;94981.16;;;27.07;32.08
46379;BME280;32084;42.254;22.744;2023-05-24T11:29:21;94975.19;;;27.26;33.74
46379;BME280;32084;42.254;22.744;2023-05-24T11:31:48;94977.06;;;27.15;32.83
46379;BME280;32084;42.254;22.744;2023-05-24T11:34:15;94975.63;;;26.97;33.00
46379;BME280;32084;42.254;22.744;2023-05-24T11:36:42;94975.84;;;26.85;31.88
46379;BME280;32084;42.254;22.744;2023-05-24T11:39:08;94966.53;;;26.81;33.15
46379;BME280;32084;42.254;22.744;2023-05-24T11:41:38;94956.69;;;26.91;33.60
46379;BME280;32084;42.254;22.744;2023-05-24T11:44:07;94963.50;;;26.88;30.42
46379;BME280;32084;42.254;22.744;2023-05-24T11:46:34;94961.34;;;26.90;32.29
46379;BME280;32084;42.254;22.744;2023-05-24T11:49:01;94963.16;;;26.69;30.97
46379;BME280;32084;42.254;22.744;2023-05-24T11:51:28;94954.94;;;26.64;31.92
46379;BME280;32084;42.254;22.744;2023-05-24T11:53:56;94950.84;;;26.72;31.97
46379;BME280;32084;42.254;22.744;2023-05-24T11:56:22;94946.22;;;26.82;32.48
46379;BME280;32084;42.254;22.744;2023-05-24T11:58:49;94945.44;;;26.97;32.70
46379;BME280;32084;42.254;22.744;2023-05-24T12:01:22;94945.28;;;27.30;31.70
46379;BME280;32084;42.254;22.744;2023-05-24T12:03:48;94949.97;;;27.39;30.98
46379;BME280;32084;42.254;22.744;2023-05-24T12:06:15;94939.28;;;27.48;32.77
46379;BME280;32084;42.254;22.744;2023-05-24T12:08:41;94941.75;;;27.44;31.74
46379;BME280;32084;42.254;22.744;2023-05-24T12:11:08;94953.25;;;27.26;29.11
46379;BME280;32084;42.254;22.744;2023-05-24T12:13:34;94949.91;;;27.19;30.79
46379;BME280;32084;42.254;22.744;2023-05-24T12:55:51;94920.31;;;27.31;32.04
46379;BME280;32084;42.254;22.744;2023-05-24T12:58:21;94918.59;;;27.04;30.37
46379;BME280;32084;42.254;22.744;2023-05-24T13:00:47;94912.53;;;26.92;31.61
46379;BME280;32084;42.254;22.744;2023-05-24T13:03:15;94907.63;;;27.04;32.01
46379;BME280;32084;42.254;22.744;2023-05-24T13:05:41;94910.66;;;27.13;32.81
46379;BME280;32084;42.254;22.744;2023-05-24T13:08:07;94904.09;;;27.19;30.35
46379;BME280;32084;42.254;22.744;2023-05-24T13:10:34;94908.53;;;27.31;30.01
46379;BME280;32084;42.254;22.744;2023-05-24T13:13:00;94906.81;;;27.04;31.41
46379;BME280;32084;42.254;22.744;2023-05-24T13:15:26;94900.75;;;27.02;32.16
46379;BME280;32084;42.254;22.744;2023-05-24T13:17:52;94896.59;;;26.84;30.57
46379;BME280;32084;42.254;22.744;2023-05-24T13:20:18;94893.56;;;26.85;30.97
46379;BME280;32084;42.254;22.744;2023-05-24T13:22:47;94892.75;;;26.85;29.45
46379;BME280;32084;42.254;22.744;2023-05-24T13:25:14;94888.38;;;26.99;30.34
46379;BME280;32084;42.254;22.744;2023-05-24T13:27:40;94892.84;;;27.21;29.66
46379;BME280;32084;42.254;22.744;2023-05-24T13:30:07;94891.22;;;27.35;28.61
46379;BME280;32084;42.254;22.744;2023-05-24T13:32:33;94886.00;;;27.34;29.22
46379;BME280;32084;42.254;22.744;2023-05-24T13:34:59;94895.06;;;27.39;30.41
46379;BME280;32084;42.254;22.744;2023-05-24T13:37:25;94880.81;;;27.27;29.55
46379;BME280;32084;42.254;22.744;2023-05-24T13:39:51;94884.59;;;27.21;31.92